Time;durP1;ratioP1;P1;durP2;ratioP2;P2;SDS_P1;SDS_P2;PMS_P1;PMS_P2;Temp;Humidity;BMP_temperature;BMP_pressure;BME280_temperature;BME280_humidity;BME280_pressure;Samples;Min_cycle;Max_cycle;Signal;HPM_P1;HPM_P2
2022/05/06 00:01:22;;;;;;;15.13;10.73;;;13.80;99.90;;;;;;6067653;23;20010;-83
2022/05/06 00:03:47;;;;;;;22.63;11.52;;;13.80;99.90;;;;;;6067767;23;20002;-82
2022/05/06 00:06:13;;;;;;;17.42;12.13;;;13.80;99.90;;;;;;6093580;23;19998;-82
2022/05/06 00:08:39;;;;;;;16.23;11.05;;;13.80;99.90;;;;;;6093323;23;19998;-83
2022/05/06 00:11:04;;;;;;;16.42;10.35;;;13.80;99.90;;;;;;6067704;23;20014;-82
2022/05/06 00:13:31;;;;;;;16.08;11.20;;;13.80;99.90;;;;;;6067653;23;20446;-82
2022/05/06 00:15:56;;;;;;;17.40;11.02;;;13.80;99.90;;;;;;6067588;23;20007;-82
2022/05/06 00:18:22;;;;;;;16.75;10.23;;;13.80;99.90;;;;;;6093301;23;20017;-82
2022/05/06 00:20:48;;;;;;;17.15;12.10;;;13.80;99.90;;;;;;6067590;23;20003;-82
2022/05/06 00:23:13;;;;;;;18.17;10.82;;;13.80;99.90;;;;;;6067693;23;20009;-82
2022/05/06 00:25:39;;;;;;;15.70;10.50;;;13.80;99.90;;;;;;6093160;23;20334;-82
2022/05/06 00:28:05;;;;;;;18.75;11.15;;;13.80;99.90;;;;;;6067651;23;20009;-82
2022/05/06 00:30:31;;;;;;;20.05;10.65;;;13.80;99.90;;;;;;6093595;23;20009;-82
2022/05/06 00:32:56;;;;;;;17.60;10.30;;;13.80;99.90;;;;;;6093380;23;20006;-82
2022/05/06 00:35:22;;;;;;;15.00;10.40;;;13.70;99.90;;;;;;6093237;23;20084;-82
2022/05/06 00:37:48;;;;;;;15.20;10.10;;;13.80;99.90;;;;;;6067507;23;20010;-83
2022/05/06 00:40:13;;;;;;;17.25;10.82;;;13.70;99.90;;;;;;6093194;23;20007;-82
2022/05/06 00:42:39;;;;;;;19.63;10.45;;;13.80;99.90;;;;;;6093451;23;19999;-83
2022/05/06 00:45:05;;;;;;;21.65;11.35;;;13.80;99.90;;;;;;6093413;23;20029;-83
2022/05/06 00:47:33;;;;;;;13.55;9.95;;;13.70;99.90;;;;;;6093369;23;20003;-83
2022/05/06 00:50:00;;;;;;;19.67;10.57;;;13.70;99.90;;;;;;6067437;23;20002;-83
2022/05/06 00:52:26;;;;;;;18.33;10.07;;;13.80;99.90;;;;;;6067403;23;20006;-83
2022/05/06 00:54:52;;;;;;;16.23;10.38;;;13.70;99.90;;;;;;6092920;23;20013;-82
2022/05/06 00:57:18;;;;;;;19.00;11.55;;;13.70;99.90;;;;;;6067480;23;20088;-83
2022/05/06 01:02:35;;;;;;;21.10;11.77;;;13.70;99.90;;;;;;6059668;23;19999;-83
2022/05/06 01:05:02;;;;;;;18.08;11.48;;;13.70;99.90;;;;;;6067520;23;20007;-83
2022/05/06 01:07:28;;;;;;;18.08;12.00;;;13.70;99.90;;;;;;6092975;23;20461;-83
2022/05/06 01:09:54;;;;;;;20.45;11.18;;;13.70;99.90;;;;;;6067348;23;20021;-83
2022/05/06 01:12:19;;;;;;;15.05;10.80;;;13.70;99.90;;;;;;6067359;23;20006;-83
2022/05/06 01:14:45;;;;;;;17.55;11.77;;;13.70;99.90;;;;;;6067387;23;20033;-83
2022/05/06 01:17:11;;;;;;;19.50;11.80;;;13.70;99.90;;;;;;6092874;23;20002;-83
2022/05/06 01:19:36;;;;;;;17.58;11.35;;;13.70;99.90;;;;;;6067155;23;20387;-83
2022/05/06 01:22:02;;;;;;;21.73;12.07;;;13.70;99.90;;;;;;6093243;23;20065;-83
2022/05/06 01:24:28;;;;;;;25.30;13.30;;;13.70;99.90;;;;;;6067366;23;20028;-83
2022/05/06 01:27:02;;;;;;;21.55;12.55;;;13.70;99.90;;;;;;6092886;23;20003;-83
2022/05/06 01:29:30;;;;;;;21.38;11.88;;;13.70;99.90;;;;;;6093543;23;20002;-83
2022/05/06 01:31:57;;;;;;;21.45;11.95;;;13.70;99.90;;;;;;6093086;23;20002;-83
2022/05/06 01:34:25;;;;;;;18.75;12.32;;;13.70;99.90;;;;;;6067550;23;20468;-83
2022/05/06 01:36:53;;;;;;;18.13;11.40;;;13.70;99.90;;;;;;6093221;23;20431;-83
2022/05/06 01:39:25;;;;;;;20.27;11.68;;;13.70;99.90;;;;;;6092623;23;20074;-83
2022/05/06 01:41:53;;;;;;;18.88;11.35;;;13.70;99.90;;;;;;6092752;23;20307;-83
2022/05/06 01:44:22;;;;;;;19.50;12.20;;;13.70;99.90;;;;;;6067100;23;20026;-83
2022/05/06 01:46:47;;;;;;;20.95;10.35;;;13.70;99.90;;;;;;6067011;23;20003;-82
2022/05/06 01:49:15;;;;;;;19.52;11.98;;;13.70;99.90;;;;;;6066614;23;20006;-83
2022/05/06 01:51:43;;;;;;;19.02;12.73;;;13.70;99.90;;;;;;6067165;23;20007;-83
2022/05/06 01:54:09;;;;;;;20.08;12.63;;;13.70;99.90;;;;;;6092495;23;20078;-82
2022/05/06 01:56:35;;;;;;;20.98;12.45;;;13.60;99.90;;;;;;6092369;23;20010;-83
2022/05/06 01:59:01;;;;;;;19.65;12.93;;;13.70;99.90;;;;;;6092526;23;20453;-83
2022/05/06 02:01:27;;;;;;;19.90;12.88;;;13.70;99.90;;;;;;6066934;23;20011;-83
2022/05/06 02:06:39;;;;;;;22.70;12.75;;;13.60;99.90;;;;;;6092671;23;20009;-82
2022/05/06 02:09:05;;;;;;;20.55;12.48;;;13.60;99.90;;;;;;6066978;23;20363;-83
2022/05/06 02:11:31;;;;;;;22.27;11.68;;;13.60;99.90;;;;;;6066977;23;20448;-83
2022/05/06 02:13:56;;;;;;;19.52;12.00;;;13.60;99.90;;;;;;6092400;23;20034;-83
2022/05/06 02:16:22;;;;;;;21.25;12.70;;;13.60;99.90;;;;;;6066894;23;20030;-83
2022/05/06 02:18:48;;;;;;;19.17;12.43;;;13.60;99.90;;;;;;6066808;23;20007;-83
2022/05/06 02:21:13;;;;;;;22.67;13.07;;;13.60;99.90;;;;;;6066761;23;20105;-83
2022/05/06 02:23:39;;;;;;;21.75;12.90;;;13.60;99.90;;;;;;6066904;23;20132;-82
2022/05/06 02:26:04;;;;;;;17.85;12.48;;;13.70;99.90;;;;;;6066887;23;20006;-83
2022/05/06 02:28:30;;;;;;;19.00;12.07;;;13.60;99.90;;;;;;6066961;23;20007;-83
2022/05/06 02:33:41;;;;;;;16.17;10.88;;;13.60;99.90;;;;;;6092511;23;20060;-83
2022/05/06 02:36:06;;;;;;;16.45;11.57;;;13.60;99.90;;;;;;6092291;23;20374;-83
2022/05/06 02:38:32;;;;;;;21.10;12.80;;;13.60;99.90;;;;;;6066768;23;20056;-83
2022/05/06 02:40:59;;;;;;;17.75;12.38;;;13.60;99.90;;;;;;6092972;23;20006;-83
2022/05/06 02:43:25;;;;;;;20.98;12.55;;;13.60;99.90;;;;;;6092569;23;20364;-83
2022/05/06 02:45:51;;;;;;;24.80;13.32;;;13.60;99.90;;;;;;6092247;23;20125;-83
2022/05/06 02:48:17;;;;;;;20.40;12.40;;;13.60;99.90;;;;;;6066705;23;20006;-82
2022/05/06 02:50:43;;;;;;;20.05;12.93;;;13.60;99.90;;;;;;6066594;23;20007;-83
2022/05/06 02:53:08;;;;;;;20.92;13.02;;;13.60;99.90;;;;;;6066557;23;20381;-83
2022/05/06 02:55:34;;;;;;;20.80;12.88;;;13.60;99.90;;;;;;6066308;23;20094;-83
2022/05/06 02:58:00;;;;;;;23.80;11.85;;;13.60;99.90;;;;;;6066427;23;20094;-83
2022/05/06 03:00:27;;;;;;;20.33;12.77;;;13.60;99.90;;;;;;6092208;23;20011;-83
2022/05/06 03:02:53;;;;;;;15.38;12.02;;;13.60;99.90;;;;;;6094233;23;20065;-83
2022/05/06 03:05:19;;;;;;;19.50;12.50;;;13.60;99.90;;;;;;6068021;23;20007;-82
2022/05/06 03:07:45;;;;;;;23.60;12.77;;;13.60;99.90;;;;;;6093563;23;20377;-82
2022/05/06 03:10:11;;;;;;;17.90;12.43;;;13.60;99.90;;;;;;6093566;23;20010;-83
2022/05/06 03:12:38;;;;;;;16.10;11.23;;;13.60;99.90;;;;;;6093371;23;20009;-83
2022/05/06 03:15:04;;;;;;;17.50;12.10;;;13.60;99.90;;;;;;6067845;23;20343;-82
2022/05/06 03:17:31;;;;;;;21.70;12.35;;;13.60;99.90;;;;;;6093435;23;20060;-83
2022/05/06 03:19:57;;;;;;;17.77;12.45;;;13.60;99.90;;;;;;6093415;23;20334;-83
2022/05/06 03:22:23;;;;;;;21.98;13.18;;;13.60;99.90;;;;;;6093434;23;19998;-83
2022/05/06 03:24:49;;;;;;;19.77;11.63;;;13.60;99.90;;;;;;6067819;23;20018;-83
2022/05/06 03:29:59;;;;;;;17.33;12.40;;;13.50;99.90;;;;;;6093771;23;20018;-83
2022/05/06 03:32:25;;;;;;;21.00;12.40;;;13.50;99.90;;;;;;6067985;23;20011;-83
2022/05/06 03:34:51;;;;;;;18.48;11.93;;;13.50;99.90;;;;;;6068088;23;20010;-82
2022/05/06 03:37:17;;;;;;;18.75;11.55;;;13.50;99.90;;;;;;6093472;23;20489;-83
2022/05/06 03:39:42;;;;;;;16.17;11.52;;;13.60;99.90;;;;;;6067723;23;20038;-82
2022/05/06 03:42:09;;;;;;;25.98;13.55;;;13.50;99.90;;;;;;6067856;23;20026;-83
2022/05/06 03:44:34;;;;;;;19.25;12.13;;;13.50;99.90;;;;;;6093384;23;20007;-83
2022/05/06 03:47:00;;;;;;;18.60;11.52;;;13.50;99.90;;;;;;6067737;23;20125;-83
2022/05/06 03:49:26;;;;;;;19.88;12.48;;;13.50;99.90;;;;;;6093353;23;20057;-83
2022/05/06 03:51:51;;;;;;;17.88;12.25;;;13.50;99.90;;;;;;6067821;23;20002;-83
2022/05/06 03:54:17;;;;;;;20.50;11.43;;;13.50;99.90;;;;;;6093280;23;20430;-83
2022/05/06 03:56:43;;;;;;;19.45;12.05;;;13.50;99.90;;;;;;6067673;23;20021;-83
2022/05/06 03:59:09;;;;;;;14.93;10.82;;;13.50;99.90;;;;;;6093353;23;20025;-83
2022/05/06 04:01:35;;;;;;;17.10;12.07;;;13.50;99.90;;;;;;6067659;23;20019;-83
2022/05/06 04:04:01;;;;;;;18.27;11.10;;;13.50;99.90;;;;;;6093604;23;19999;-83
2022/05/06 04:06:27;;;;;;;18.30;12.38;;;13.50;99.90;;;;;;6067765;23;20002;-82
2022/05/06 04:08:54;;;;;;;17.02;10.80;;;13.50;99.90;;;;;;6093343;23;20009;-83
2022/05/06 04:11:20;;;;;;;16.77;11.32;;;13.50;99.90;;;;;;6093266;23;20006;-83
2022/05/06 04:13:46;;;;;;;19.17;13.20;;;13.50;99.90;;;;;;6093026;23;20003;-83
2022/05/06 04:16:12;;;;;;;15.25;11.93;;;13.50;99.90;;;;;;6067641;23;20002;-83
2022/05/06 04:18:38;;;;;;;18.75;12.27;;;13.50;99.90;;;;;;6093560;23;20304;-83
2022/05/06 04:23:48;;;;;;;19.35;11.38;;;13.50;99.90;;;;;;6093614;23;20504;-82
2022/05/06 04:26:14;;;;;;;18.38;12.57;;;13.50;99.90;;;;;;6067704;23;20003;-82
2022/05/06 04:28:40;;;;;;;19.00;12.07;;;13.50;99.90;;;;;;6093541;23;20074;-82
2022/05/06 04:31:07;;;;;;;20.40;12.60;;;13.50;99.90;;;;;;6067578;23;20014;-82
2022/05/06 04:33:34;;;;;;;17.48;12.23;;;13.50;99.90;;;;;;6093195;23;20029;-82
2022/05/06 04:36:00;;;;;;;16.52;11.77;;;13.50;99.90;;;;;;6093211;23;20070;-82
2022/05/06 04:38:26;;;;;;;18.13;11.77;;;13.40;99.90;;;;;;6093562;23;20037;-82
2022/05/06 04:40:56;;;;;;;17.63;11.38;;;13.40;99.90;;;;;;6093070;23;20132;-82
2022/05/06 04:43:23;;;;;;;22.02;12.68;;;13.40;99.90;;;;;;6067564;23;20003;-83
2022/05/06 04:45:51;;;;;;;20.35;13.02;;;13.40;99.90;;;;;;6093491;23;20022;-83
2022/05/06 04:48:17;;;;;;;16.35;11.13;;;13.40;99.90;;;;;;6067463;23;20013;-82
2022/05/06 04:50:44;;;;;;;19.00;11.30;;;13.40;99.90;;;;;;6093487;23;20334;-82
2022/05/06 04:53:11;;;;;;;16.25;11.88;;;13.40;99.90;;;;;;6067517;23;20152;-83
2022/05/06 04:55:39;;;;;;;18.52;11.48;;;13.40;99.90;;;;;;6067171;23;20320;-82
2022/05/06 04:58:06;;;;;;;20.00;11.85;;;13.40;99.90;;;;;;6067528;23;20010;-83
2022/05/06 05:00:33;;;;;;;16.88;11.52;;;13.40;99.90;;;;;;6067372;23;20015;-82
2022/05/06 05:02:59;;;;;;;17.13;10.93;;;13.40;99.90;;;;;;6067547;23;20343;-82
2022/05/06 05:05:25;;;;;;;20.60;11.05;;;13.40;99.90;;;;;;6067454;23;20038;-82
2022/05/06 05:07:53;;;;;;;15.80;10.85;;;13.40;99.90;;;;;;6093004;23;20299;-83
2022/05/06 05:10:19;;;;;;;15.52;11.32;;;13.40;99.90;;;;;;6093295;23;20383;-82
2022/05/06 05:12:44;;;;;;;15.75;11.02;;;13.40;99.90;;;;;;6067367;23;20037;-83
2022/05/06 05:15:10;;;;;;;15.23;11.15;;;13.40;99.90;;;;;;6067455;23;20002;-82
2022/05/06 05:17:36;;;;;;;14.55;10.52;;;13.40;99.90;;;;;;6067285;23;20014;-83
2022/05/06 05:20:02;;;;;;;14.52;10.30;;;13.40;99.90;;;;;;6067341;23;20006;-84
2022/05/06 05:22:28;;;;;;;15.75;11.05;;;13.40;99.90;;;;;;6093279;23;20016;-82
2022/05/06 05:24:54;;;;;;;15.77;9.95;;;13.40;99.90;;;;;;6067152;23;20308;-82
2022/05/06 05:27:20;;;;;;;14.82;11.23;;;13.40;99.90;;;;;;6093502;23;20376;-82
2022/05/06 05:29:46;;;;;;;11.20;9.20;;;13.40;99.90;;;;;;6093075;23;20010;-82
2022/05/06 05:32:12;;;;;;;16.73;10.93;;;13.40;99.90;;;;;;6067552;23;20017;-82
2022/05/06 05:34:37;;;;;;;15.00;10.63;;;13.40;99.90;;;;;;6093162;23;20010;-83
2022/05/06 05:37:03;;;;;;;14.07;10.45;;;13.40;99.90;;;;;;6093352;23;20013;-82
2022/05/06 05:39:31;;;;;;;18.20;10.77;;;13.40;99.90;;;;;;6067088;23;20311;-82
2022/05/06 05:41:57;;;;;;;17.27;11.15;;;13.40;99.90;;;;;;6067185;23;20093;-82
2022/05/06 05:49:51;;;;;;;14.15;9.77;;;13.40;99.90;;;;;;6092833;23;20013;-82
2022/05/06 05:52:17;;;;;;;12.30;9.50;;;13.40;99.90;;;;;;6093045;23;20011;-83
2022/05/06 05:54:43;;;;;;;14.00;9.70;;;13.30;99.90;;;;;;6092435;23;20441;-82
2022/05/06 05:57:08;;;;;;;13.10;9.98;;;13.30;99.90;;;;;;6067043;23;20011;-82
2022/05/06 05:59:34;;;;;;;15.02;10.25;;;13.30;99.90;;;;;;6067057;23;20010;-83
2022/05/06 06:02:01;;;;;;;18.10;9.98;;;13.30;99.90;;;;;;6092591;23;20033;-83
2022/05/06 06:04:28;;;;;;;11.95;10.43;;;13.30;99.90;;;;;;6092552;23;20444;-82
2022/05/06 06:06:53;;;;;;;12.77;10.38;;;13.30;99.90;;;;;;6067001;23;19999;-82
2022/05/06 06:09:22;;;;;;;14.30;10.13;;;13.30;99.90;;;;;;6066872;23;20021;-82
2022/05/06 06:11:51;;;;;;;14.80;11.30;;;13.30;99.90;;;;;;6092455;23;20002;-83
2022/05/06 06:14:17;;;;;;;13.85;9.63;;;13.30;99.90;;;;;;6092802;23;20078;-82
2022/05/06 06:16:43;;;;;;;13.52;10.05;;;13.30;99.90;;;;;;6066862;23;20038;-83
2022/05/06 06:19:10;;;;;;;13.95;9.90;;;13.30;99.90;;;;;;6067159;23;20052;-82
2022/05/06 06:21:36;;;;;;;16.40;10.32;;;13.30;99.90;;;;;;6067094;23;20007;-83
2022/05/06 06:24:02;;;;;;;16.08;10.15;;;13.30;99.90;;;;;;6066887;23;20013;-82
2022/05/06 06:26:27;;;;;;;14.35;9.52;;;13.30;99.90;;;;;;6066835;23;20010;-82
2022/05/06 06:28:54;;;;;;;12.13;9.32;;;13.30;99.90;;;;;;6092609;23;20003;-83
2022/05/06 06:31:20;;;;;;;18.20;10.00;;;13.30;99.90;;;;;;6066885;23;20038;-82
2022/05/06 06:33:46;;;;;;;15.93;10.38;;;13.30;99.90;;;;;;6066855;23;20030;-82
2022/05/06 06:36:12;;;;;;;11.88;9.07;;;13.30;99.90;;;;;;6092735;23;20441;-83
2022/05/06 06:38:37;;;;;;;15.93;10.93;;;13.30;99.90;;;;;;6093451;23;20073;-83
2022/05/06 06:41:04;;;;;;;14.63;10.25;;;13.30;99.90;;;;;;6067838;23;20013;-82
2022/05/06 06:43:29;;;;;;;16.42;9.95;;;13.30;99.90;;;;;;6067964;23;20439;-82
2022/05/06 06:45:56;;;;;;;13.55;9.35;;;13.30;99.90;;;;;;6094043;23;20006;-82
2022/05/06 06:48:23;;;;;;;16.15;11.18;;;13.30;99.90;;;;;;6093414;23;20026;-82
2022/05/06 06:50:49;;;;;;;13.07;10.20;;;13.40;99.90;;;;;;6067987;23;20364;-82
2022/05/06 06:53:14;;;;;;;12.85;9.38;;;13.30;99.90;;;;;;6068068;23;20098;-82
2022/05/06 06:55:40;;;;;;;14.52;10.43;;;13.30;99.90;;;;;;6093299;23;20011;-82
2022/05/06 06:58:07;;;;;;;13.50;9.88;;;13.30;99.90;;;;;;6067945;23;20017;-82
2022/05/06 07:00:33;;;;;;;15.73;9.93;;;13.30;99.90;;;;;;6093321;23;20007;-82
2022/05/06 07:02:59;;;;;;;15.23;9.70;;;13.30;99.90;;;;;;6093478;23;19999;-82
2022/05/06 07:05:24;;;;;;;14.52;10.52;;;13.30;99.90;;;;;;6067957;23;20006;-82
2022/05/06 07:13:18;;;;;;;14.45;9.20;;;13.30;99.90;;;;;;6093754;23;20029;-82
2022/05/06 07:15:44;;;;;;;13.75;9.05;;;13.40;99.90;;;;;;6093380;23;20002;-82
2022/05/06 07:18:10;;;;;;;14.30;10.15;;;13.40;99.90;;;;;;6068008;23;20006;-82
2022/05/06 07:20:36;;;;;;;11.75;9.30;;;13.40;99.90;;;;;;6067844;23;20017;-82
2022/05/06 07:23:04;;;;;;;14.00;9.23;;;13.40;99.90;;;;;;6067904;23;20053;-83
2022/05/06 07:25:30;;;;;;;12.85;8.93;;;13.40;99.90;;;;;;6093448;23;20007;-82
2022/05/06 07:27:55;;;;;;;13.55;8.38;;;13.40;99.90;;;;;;6093654;23;20006;-82
2022/05/06 07:30:21;;;;;;;11.93;7.93;;;13.40;99.90;;;;;;6067888;23;20334;-82
2022/05/06 07:32:47;;;;;;;15.63;9.25;;;13.40;99.90;;;;;;6067805;23;20006;-82
2022/05/06 07:35:13;;;;;;;11.15;8.80;;;13.40;99.90;;;;;;6093671;23;20007;-82
2022/05/06 07:37:39;;;;;;;12.27;8.60;;;13.40;99.90;;;;;;6093320;23;20337;-82
2022/05/06 07:40:06;;;;;;;12.55;8.95;;;13.40;99.90;;;;;;6093251;23;20007;-82
2022/05/06 07:42:32;;;;;;;13.70;8.82;;;13.40;99.90;;;;;;6067752;23;20010;-82
2022/05/06 07:45:01;;;;;;;11.00;8.80;;;13.40;99.90;;;;;;6068334;23;20491;-82
2022/05/06 07:47:26;;;;;;;11.23;8.32;;;13.40;99.90;;;;;;6067264;23;20089;-82
2022/05/06 07:49:52;;;;;;;12.70;8.88;;;13.40;99.90;;;;;;6093395;23;20339;-83
2022/05/06 07:52:18;;;;;;;16.08;8.38;;;13.40;99.90;;;;;;6093610;23;20003;-83
2022/05/06 07:54:44;;;;;;;11.45;8.55;;;13.40;99.90;;;;;;6093136;23;20065;-82
2022/05/06 07:57:12;;;;;;;15.00;8.13;;;13.40;99.90;;;;;;6093259;23;20018;-83
2022/05/06 07:59:38;;;;;;;11.00;8.43;;;13.40;99.90;;;;;;6067548;23;20011;-83
2022/05/06 08:04:48;;;;;;;13.27;8.20;;;13.50;99.90;;;;;;6093588;23;20061;-83
2022/05/06 08:07:15;;;;;;;12.80;8.32;;;13.50;99.90;;;;;;6093482;23;20429;-83
2022/05/06 08:09:41;;;;;;;14.20;9.43;;;13.50;99.90;;;;;;6093550;23;20002;-83
2022/05/06 08:12:09;;;;;;;13.57;8.65;;;13.50;99.90;;;;;;6093193;23;20064;-83
2022/05/06 08:14:38;;;;;;;12.02;8.05;;;13.50;99.90;;;;;;6093532;23;20002;-83
2022/05/06 08:17:04;;;;;;;11.45;8.02;;;13.50;99.90;;;;;;6093191;23;19998;-83
2022/05/06 08:19:30;;;;;;;13.18;7.82;;;13.50;99.90;;;;;;6093451;23;19999;-83
2022/05/06 08:21:56;;;;;;;12.50;8.73;;;13.50;99.90;;;;;;6067552;23;20026;-83
2022/05/06 08:24:22;;;;;;;11.95;8.35;;;13.50;99.90;;;;;;6067522;23;20033;-83
2022/05/06 08:26:49;;;;;;;11.40;8.23;;;13.50;99.90;;;;;;6093204;23;20430;-83
2022/05/06 08:29:17;;;;;;;14.23;7.90;;;13.50;99.90;;;;;;6093185;23;20003;-83
2022/05/06 08:31:43;;;;;;;10.40;7.18;;;13.50;99.90;;;;;;6093156;23;20010;-83
2022/05/06 08:34:11;;;;;;;9.13;7.53;;;13.50;99.90;;;;;;6093454;23;20003;-82
2022/05/06 08:36:43;;;;;;;13.48;7.38;;;13.50;99.90;;;;;;6067565;23;20006;-83
2022/05/06 08:39:12;;;;;;;9.73;7.10;;;13.50;99.90;;;;;;6093253;23;20029;-83
2022/05/06 08:41:39;;;;;;;11.00;7.22;;;13.60;99.90;;;;;;6067309;23;20006;-83
2022/05/06 08:52:29;;;;;;;9.45;6.78;;;13.60;99.90;;;;;;6093742;23;20010;-83
2022/05/06 08:54:55;;;;;;;9.73;6.43;;;13.60;99.90;;;;;;6067270;23;20438;-83
2022/05/06 08:57:23;;;;;;;9.70;6.85;;;13.70;99.90;;;;;;6067690;23;20064;-83
2022/05/06 08:59:51;;;;;;;9.82;6.65;;;13.70;99.90;;;;;;6067321;23;20014;-83
2022/05/06 09:02:17;;;;;;;11.23;6.40;;;13.70;99.90;;;;;;6092977;23;20003;-83
2022/05/06 09:04:43;;;;;;;29.98;8.48;;;13.70;99.90;;;;;;6067328;23;20366;-84
2022/05/06 09:07:13;;;;;;;21.05;10.13;;;13.70;99.90;;;;;;6095081;23;20025;-83
2022/05/06 09:09:39;;;;;;;15.07;8.50;;;13.70;99.90;;;;;;6067543;23;20088;-83
2022/05/06 09:17:45;;;;;;;16.27;7.13;;;13.70;99.90;;;;;;6093425;23;20032;-83
2022/05/06 09:20:19;;;;;;;51.10;10.55;;;13.80;99.90;;;;;;6067577;23;20081;-83
2022/05/06 09:22:44;;;;;;;19.45;7.05;;;13.70;99.90;;;;;;6094464;23;20006;-83
2022/05/06 09:25:10;;;;;;;13.48;7.03;;;13.70;99.90;;;;;;6067638;23;20006;-83
2022/05/06 09:27:36;;;;;;;211.30;16.38;;;13.70;99.90;;;;;;6067472;23;19998;-83
2022/05/06 09:30:10;;;;;;;330.67;24.67;;;13.70;99.90;;;;;;6067412;23;20006;-82
2022/05/06 09:32:36;;;;;;;64.43;10.85;;;13.70;99.90;;;;;;6093494;23;20006;-83
2022/05/06 09:35:09;;;;;;;16.33;5.95;;;13.80;99.90;;;;;;6093237;23;20006;-83
2022/05/06 09:37:42;;;;;;;15.18;6.20;;;13.80;99.90;;;;;;6067903;23;20435;-83
2022/05/06 09:40:20;;;;;;;10.90;5.88;;;13.80;99.90;;;;;;6092872;23;20029;-83
2022/05/06 09:42:54;;;;;;;10.65;5.20;;;13.80;99.90;;;;;;6092926;23;20056;-83
2022/05/06 09:45:42;;;;;;;12.00;5.90;;;13.80;99.90;;;;;;6067328;23;20007;-82
2022/05/06 09:48:11;;;;;;;12.05;5.03;;;13.80;99.90;;;;;;6067177;23;20434;-82
2022/05/06 09:50:39;;;;;;;12.32;5.50;;;13.70;99.90;;;;;;6092623;23;20007;-82
2022/05/06 09:53:12;;;;;;;13.05;5.32;;;13.70;99.90;;;;;;6067043;23;20007;-83
2022/05/06 09:55:46;;;;;;;16.10;4.82;;;13.70;99.90;;;;;;6066887;23;20018;-83
2022/05/06 09:58:16;;;;;;;10.43;5.20;;;13.70;99.90;;;;;;6092674;23;20088;-83
2022/05/06 10:00:42;;;;;;;11.35;4.68;;;13.80;99.90;;;;;;6066990;23;20049;-83
2022/05/06 10:03:11;;;;;;;10.27;4.65;;;13.80;99.90;;;;;;6093093;23;20078;-83
2022/05/06 10:05:38;;;;;;;9.55;5.30;;;13.80;99.90;;;;;;6067121;23;20473;-82
2022/05/06 10:08:11;;;;;;;6.60;4.38;;;13.80;99.90;;;;;;6067079;23;20002;-83
2022/05/06 10:10:44;;;;;;;8.27;4.53;;;13.80;99.90;;;;;;6092856;23;20334;-83
2022/05/06 10:13:16;;;;;;;8.80;4.30;;;13.90;99.90;;;;;;6093572;23;20006;-83
2022/05/06 10:15:42;;;;;;;10.98;4.70;;;13.90;99.90;;;;;;6068135;23;20011;-82
2022/05/06 10:18:07;;;;;;;7.43;4.50;;;13.90;99.90;;;;;;6093831;23;20037;-83
2022/05/06 10:23:09;;;;;;;7.00;4.43;;;14.00;99.90;;;;;;6094147;23;20006;-82
2022/05/06 10:25:41;;;;;;;9.07;4.28;;;14.00;99.90;;;;;;6093726;23;20002;-83
2022/05/06 10:34:23;;;;;;;8.45;4.13;;;14.10;99.90;;;;;;6106966;23;20017;-82
2022/05/06 10:36:50;;;;;;;6.88;4.10;;;14.10;99.90;;;;;;6093722;23;20329;-82
2022/05/06 10:39:19;;;;;;;8.80;4.50;;;14.10;99.90;;;;;;6093683;23;20006;-83
2022/05/06 10:42:10;;;;;;;7.88;3.40;;;14.10;99.90;;;;;;6068076;23;20010;-83
2022/05/06 10:44:36;;;;;;;6.82;3.90;;;14.10;99.90;;;;;;6093698;23;20094;-83
2022/05/06 10:47:15;;;;;;;4.78;3.50;;;14.20;99.90;;;;;;6067940;23;20034;-83
2022/05/06 10:49:46;;;;;;;6.13;3.83;;;14.20;99.90;;;;;;6068020;23;20006;-83
2022/05/06 10:52:18;;;;;;;8.30;3.70;;;14.30;99.90;;;;;;6068191;23;20006;-83
2022/05/06 10:54:48;;;;;;;7.32;3.85;;;14.30;99.90;;;;;;6093463;23;20334;-83
2022/05/06 10:57:19;;;;;;;5.43;3.53;;;14.40;99.90;;;;;;6093628;23;20006;-83
2022/05/06 10:59:52;;;;;;;6.35;3.38;;;14.40;99.90;;;;;;6093342;23;20069;-83
2022/05/06 11:02:23;;;;;;;5.85;3.78;;;14.40;99.90;;;;;;6093478;23;20006;-83
2022/05/06 11:04:52;;;;;;;6.50;3.55;;;14.50;99.90;;;;;;6067988;23;20010;-83
2022/05/06 11:07:18;;;;;;;5.78;3.50;;;14.50;99.90;;;;;;6067969;23;20003;-83
2022/05/06 11:09:44;;;;;;;6.55;3.40;;;14.50;99.90;;;;;;6093783;23;20009;-83
2022/05/06 11:12:10;;;;;;;6.82;3.60;;;14.50;99.90;;;;;;6093565;23;20005;-83
2022/05/06 11:14:36;;;;;;;8.30;3.15;;;14.60;99.90;;;;;;6068061;23;20003;-83
2022/05/06 11:17:22;;;;;;;6.90;3.10;;;14.60;99.90;;;;;;6068047;23;20006;-82
2022/05/06 11:19:49;;;;;;;7.10;3.08;;;14.60;99.90;;;;;;6093844;23;20073;-83
2022/05/06 11:22:15;;;;;;;7.07;3.53;;;14.60;99.90;;;;;;6067563;23;20386;-83
2022/05/06 11:24:41;;;;;;;7.45;3.53;;;14.70;99.90;;;;;;6093557;23;20003;-83
2022/05/06 11:27:16;;;;;;;3.42;2.75;;;14.70;99.90;;;;;;6068117;23;20375;-82
2022/05/06 11:29:57;;;;;;;5.80;3.15;;;14.70;99.90;;;;;;6093592;23;20353;-83
2022/05/06 11:32:28;;;;;;;6.13;2.95;;;14.70;99.90;;;;;;6068107;23;20056;-83
2022/05/06 11:35:02;;;;;;;4.35;2.80;;;14.70;99.90;;;;;;6093949;23;20030;-83
2022/05/06 11:37:32;;;;;;;6.20;3.38;;;14.80;99.90;;;;;;6093516;23;20176;-83
2022/05/06 11:42:42;;;;;;;5.80;3.03;;;14.80;99.90;;;;;;6093682;23;20017;-83
2022/05/06 11:48:09;;;;;;;5.65;3.00;;;14.90;99.90;;;;;;6093971;23;20037;-83
2022/05/06 11:50:37;;;;;;;3.92;3.10;;;15.00;99.90;;;;;;6067927;23;20082;-83
2022/05/06 11:53:09;;;;;;;6.20;3.08;;;15.10;99.90;;;;;;6093653;23;20010;-83
2022/05/06 11:55:43;;;;;;;4.80;3.08;;;15.10;99.90;;;;;;6067596;23;20026;-83
2022/05/06 11:58:15;;;;;;;5.50;3.15;;;15.10;99.90;;;;;;6093523;23;20426;-83
2022/05/06 12:00:41;;;;;;;5.13;3.25;;;15.10;99.90;;;;;;6093276;23;20045;-83
2022/05/06 12:03:09;;;;;;;7.13;2.95;;;15.10;99.90;;;;;;6093972;23;20455;-83
2022/05/06 12:05:39;;;;;;;5.35;3.47;;;15.00;99.90;;;;;;6067635;23;19998;-83
2022/05/06 12:08:06;;;;;;;5.28;3.28;;;15.00;99.90;;;;;;6067678;23;20006;-83
2022/05/06 12:10:33;;;;;;;4.55;2.80;;;15.00;99.90;;;;;;6067426;23;20446;-83
2022/05/06 12:13:00;;;;;;;5.43;3.28;;;15.00;99.90;;;;;;6093618;23;20007;-83
2022/05/06 12:15:29;;;;;;;4.22;2.97;;;15.00;99.90;;;;;;6067582;23;20350;-83
2022/05/06 12:18:17;;;;;;;6.43;3.00;;;15.00;99.90;;;;;;6093199;23;20012;-84
2022/05/06 12:20:43;;;;;;;5.95;3.03;;;14.90;99.90;;;;;;6093130;23;20010;-83
2022/05/06 12:23:11;;;;;;;4.75;3.28;;;15.00;99.90;;;;;;6093196;23;20017;-83
2022/05/06 12:25:41;;;;;;;3.70;2.75;;;15.00;99.90;;;;;;6067601;23;20002;-83
2022/05/06 12:28:18;;;;;;;10.48;3.60;;;15.00;99.90;;;;;;6093255;23;20439;-83
2022/05/06 12:30:45;;;;;;;5.60;3.40;;;15.10;99.90;;;;;;6067778;23;20338;-83
2022/05/06 12:33:13;;;;;;;5.90;3.38;;;15.10;99.90;;;;;;6067379;23;20097;-83
2022/05/06 12:35:56;;;;;;;6.97;3.42;;;15.10;99.90;;;;;;6093191;23;20006;-83
2022/05/06 12:38:26;;;;;;;5.38;3.40;;;15.10;99.90;;;;;;6093143;23;20457;-83
2022/05/06 12:40:53;;;;;;;6.57;3.58;;;15.20;99.90;;;;;;6067462;23;20069;-83
2022/05/06 12:43:26;;;;;;;5.57;3.15;;;15.20;99.90;;;;;;6093135;23;20003;-83
2022/05/06 12:46:01;;;;;;;5.00;3.20;;;15.20;99.90;;;;;;6067458;23;20378;-83
2022/05/06 12:51:11;;;;;;;7.25;3.40;;;15.30;99.90;;;;;;6093233;23;20402;-83
2022/05/06 12:53:37;;;;;;;4.25;3.17;;;15.30;99.90;;;;;;6093156;23;20010;-83
2022/05/06 12:56:04;;;;;;;6.53;3.35;;;15.30;99.90;;;;;;6067307;23;20022;-83
2022/05/06 12:58:30;;;;;;;5.13;3.03;;;15.40;99.90;;;;;;6093094;23;20465;-83
2022/05/06 13:00:57;;;;;;;6.22;3.15;;;15.40;99.90;;;;;;6093442;23;20003;-83
2022/05/06 13:03:23;;;;;;;7.10;3.88;;;15.30;99.90;;;;;;6067395;23;20006;-83
2022/05/06 13:05:50;;;;;;;4.03;2.88;;;15.40;99.90;;;;;;6067439;23;20003;-83
2022/05/06 13:08:15;;;;;;;4.65;3.00;;;15.40;99.90;;;;;;6067428;23;20013;-83
2022/05/06 13:10:41;;;;;;;7.25;3.25;;;15.50;99.90;;;;;;6067337;23;20011;-83
2022/05/06 13:13:07;;;;;;;4.72;3.03;;;15.60;99.90;;;;;;6092970;23;20327;-84
2022/05/06 13:15:33;;;;;;;4.45;2.78;;;15.70;99.90;;;;;;6092920;23;20003;-83
2022/05/06 13:17:58;;;;;;;4.43;2.80;;;15.80;99.90;;;;;;6067261;23;20461;-84
2022/05/06 13:20:24;;;;;;;4.90;2.65;;;15.90;99.90;;;;;;6067399;23;20006;-83
2022/05/06 13:22:50;;;;;;;6.25;2.83;;;16.00;99.90;;;;;;6067307;23;20102;-83
2022/05/06 13:25:15;;;;;;;4.47;3.08;;;16.00;99.90;;;;;;6067251;23;20006;-83
2022/05/06 13:27:41;;;;;;;4.90;3.10;;;16.00;99.90;;;;;;6092947;23;20073;-84
2022/05/06 13:30:08;;;;;;;5.55;3.00;;;15.90;99.90;;;;;;6067348;23;20029;-83
2022/05/06 13:32:34;;;;;;;3.83;2.88;;;15.80;99.90;;;;;;6067276;23;20010;-83
2022/05/06 13:35:00;;;;;;;4.63;3.05;;;15.70;99.90;;;;;;6067324;23;20006;-84